sensor_id;sensor_type;location;lat;lon;timestamp;pressure;altitude;pressure_sealevel;temperature;humidity
62592;BME280;48659;41.622;2.276;2023-05-20T00:00:19;99677.60;;;17.27;55.41
62592;BME280;48659;41.622;2.276;2023-05-20T00:02:46;99678.27;;;16.29;56.59
62592;BME280;48659;41.622;2.276;2023-05-20T00:05:15;99676.49;;;16.46;56.73
62592;BME280;48659;41.622;2.276;2023-05-20T00:07:42;99673.16;;;16.56;57.59
62592;BME280;48659;41.622;2.276;2023-05-20T00:10:10;99663.18;;;16.47;56.35
62592;BME280;48659;41.622;2.276;2023-05-20T00:12:38;99662.66;;;16.62;55.80
62592;BME280;48659;41.622;2.276;2023-05-20T00:15:07;99662.72;;;15.53;58.65
62592;BME280;48659;41.622;2.276;2023-05-20T00:17:35;99658.75;;;15.54;59.49
62592;BME280;48659;41.622;2.276;2023-05-20T00:20:02;99646.42;;;16.40;57.42
62592;BME280;48659;41.622;2.276;2023-05-20T00:22:30;99648.54;;;15.63;57.82
62592;BME280;48659;41.622;2.276;2023-05-20T00:24:57;99655.97;;;14.43;60.99
62592;BME280;48659;41.622;2.276;2023-05-20T00:27:24;99652.64;;;15.30;58.86
62592;BME280;48659;41.622;2.276;2023-05-20T00:30:05;99654.67;;;15.20;59.20
62592;BME280;48659;41.622;2.276;2023-05-20T00:32:33;99652.90;;;14.42;60.50
62592;BME280;48659;41.622;2.276;2023-05-20T00:35:02;99657.96;;;12.58;65.18
62592;BME280;48659;41.622;2.276;2023-05-20T00:37:30;99651.59;;;14.93;61.57
62592;BME280;48659;41.622;2.276;2023-05-20T00:39:58;99644.25;;;15.68;58.11
62592;BME280;48659;41.622;2.276;2023-05-20T00:42:26;99643.42;;;15.60;59.33
62592;BME280;48659;41.622;2.276;2023-05-20T00:44:54;99644.21;;;15.62;57.83
62592;BME280;48659;41.622;2.276;2023-05-20T00:47:25;99643.39;;;16.17;56.53
62592;BME280;48659;41.622;2.276;2023-05-20T00:50:02;99641.65;;;16.44;55.57
62592;BME280;48659;41.622;2.276;2023-05-20T00:52:31;99642.48;;;14.97;58.81
62592;BME280;48659;41.622;2.276;2023-05-20T00:54:59;99635.79;;;16.20;54.51
62592;BME280;48659;41.622;2.276;2023-05-20T00:57:27;99635.17;;;16.35;54.41
62592;BME280;48659;41.622;2.276;2023-05-20T00:59:54;99630.12;;;16.36;54.76
62592;BME280;48659;41.622;2.276;2023-05-20T01:02:23;99626.81;;;16.18;54.24
62592;BME280;48659;41.622;2.276;2023-05-20T01:04:51;99623.81;;;16.03;54.50
62592;BME280;48659;41.622;2.276;2023-05-20T01:07:20;99617.97;;;16.12;55.03
62592;BME280;48659;41.622;2.276;2023-05-20T01:09:48;99613.02;;;16.46;54.28
62592;BME280;48659;41.622;2.276;2023-05-20T01:12:19;99608.39;;;15.73;56.39
62592;BME280;48659;41.622;2.276;2023-05-20T01:14:52;99610.36;;;16.63;54.46
62592;BME280;48659;41.622;2.276;2023-05-20T01:17:21;99597.64;;;15.44;55.85
62592;BME280;48659;41.622;2.276;2023-05-20T01:19:51;99599.24;;;16.56;52.51
62592;BME280;48659;41.622;2.276;2023-05-20T01:22:35;99597.32;;;13.41;58.77
62592;BME280;48659;41.622;2.276;2023-05-20T01:25:04;99586.18;;;15.80;54.01
62592;BME280;48659;41.622;2.276;2023-05-20T01:27:31;99582.02;;;14.85;55.66
62592;BME280;48659;41.622;2.276;2023-05-20T01:30:01;99578.54;;;14.74;56.62
62592;BME280;48659;41.622;2.276;2023-05-20T01:32:33;99581.15;;;13.17;59.81
62592;BME280;48659;41.622;2.276;2023-05-20T01:35:04;99578.19;;;12.71;60.64
62592;BME280;48659;41.622;2.276;2023-05-20T01:37:34;99580.52;;;12.34;63.84
62592;BME280;48659;41.622;2.276;2023-05-20T01:40:04;99573.13;;;13.71;59.91
62592;BME280;48659;41.622;2.276;2023-05-20T01:42:35;99572.40;;;13.21;60.99
62592;BME280;48659;41.622;2.276;2023-05-20T01:45:05;99566.45;;;13.58;61.02
62592;BME280;48659;41.622;2.276;2023-05-20T01:47:33;99561.62;;;13.57;61.09
62592;BME280;48659;41.622;2.276;2023-05-20T01:50:02;99568.29;;;12.24;64.10
62592;BME280;48659;41.622;2.276;2023-05-20T01:52:30;99566.65;;;11.32;67.42
62592;BME280;48659;41.622;2.276;2023-05-20T01:55:03;99556.95;;;12.83;62.16
62592;BME280;48659;41.622;2.276;2023-05-20T01:57:31;99554.54;;;14.03;58.66
62592;BME280;48659;41.622;2.276;2023-05-20T01:59:59;99555.03;;;13.75;58.86
62592;BME280;48659;41.622;2.276;2023-05-20T02:02:27;99550.14;;;13.33;61.82
62592;BME280;48659;41.622;2.276;2023-05-20T02:04:54;99545.35;;;15.03;57.12
62592;BME280;48659;41.622;2.276;2023-05-20T02:07:22;99551.04;;;13.76;59.09
62592;BME280;48659;41.622;2.276;2023-05-20T02:09:49;99547.29;;;14.00;58.37
62592;BME280;48659;41.622;2.276;2023-05-20T02:12:17;99540.04;;;14.95;54.78
62592;BME280;48659;41.622;2.276;2023-05-20T02:14:46;99534.66;;;15.35;53.87
62592;BME280;48659;41.622;2.276;2023-05-20T02:17:13;99533.24;;;14.46;56.15
62592;BME280;48659;41.622;2.276;2023-05-20T02:19:40;99541.81;;;12.41;62.85
62592;BME280;48659;41.622;2.276;2023-05-20T02:22:07;99535.60;;;11.91;64.41
62592;BME280;48659;41.622;2.276;2023-05-20T02:29:23;99527.44;;;11.31;67.40
62592;BME280;48659;41.622;2.276;2023-05-20T02:31:56;99523.16;;;12.01;65.06
62592;BME280;48659;41.622;2.276;2023-05-20T02:34:24;99511.15;;;13.09;60.68
62592;BME280;48659;41.622;2.276;2023-05-20T02:36:54;99507.04;;;14.48;56.27
62592;BME280;48659;41.622;2.276;2023-05-20T02:39:22;99503.92;;;15.20;53.76
62592;BME280;48659;41.622;2.276;2023-05-20T02:41:51;99498.81;;;15.50;53.05
62592;BME280;48659;41.622;2.276;2023-05-20T02:44:19;99497.49;;;13.40;56.86
62592;BME280;48659;41.622;2.276;2023-05-20T02:46:48;99491.79;;;15.01;53.53
62592;BME280;48659;41.622;2.276;2023-05-20T02:49:15;99489.12;;;15.85;52.23
62592;BME280;48659;41.622;2.276;2023-05-20T02:51:43;99487.46;;;16.03;51.35
62592;BME280;48659;41.622;2.276;2023-05-20T02:54:12;99488.43;;;16.20;50.54
62592;BME280;48659;41.622;2.276;2023-05-20T02:56:39;99491.32;;;16.40;50.93
62592;BME280;48659;41.622;2.276;2023-05-20T02:59:08;99484.46;;;15.30;51.89
62592;BME280;48659;41.622;2.276;2023-05-20T03:01:35;99482.69;;;16.41;50.20
62592;BME280;48659;41.622;2.276;2023-05-20T03:04:03;99478.58;;;16.40;50.84
62592;BME280;48659;41.622;2.276;2023-05-20T03:06:30;99475.69;;;15.37;54.43
62592;BME280;48659;41.622;2.276;2023-05-20T03:08:58;99478.99;;;16.33;53.00
62592;BME280;48659;41.622;2.276;2023-05-20T03:11:26;99477.44;;;16.48;52.75
62592;BME280;48659;41.622;2.276;2023-05-20T03:13:55;99475.51;;;15.08;56.45
62592;BME280;48659;41.622;2.276;2023-05-20T03:16:22;99471.68;;;16.35;53.96
62592;BME280;48659;41.622;2.276;2023-05-20T03:18:51;99465.90;;;16.39;53.73
62592;BME280;48659;41.622;2.276;2023-05-20T03:21:19;99463.23;;;15.81;54.69
62592;BME280;48659;41.622;2.276;2023-05-20T03:23:47;99463.67;;;15.98;53.79
62592;BME280;48659;41.622;2.276;2023-05-20T03:26:14;99461.46;;;16.49;52.78
62592;BME280;48659;41.622;2.276;2023-05-20T03:28:42;99458.75;;;16.64;51.80
62592;BME280;48659;41.622;2.276;2023-05-20T03:31:09;99462.18;;;16.44;52.18
62592;BME280;48659;41.622;2.276;2023-05-20T03:33:37;99465.26;;;15.85;53.71
62592;BME280;48659;41.622;2.276;2023-05-20T03:36:05;99463.98;;;15.75;54.42
62592;BME280;48659;41.622;2.276;2023-05-20T03:38:32;99465.89;;;16.62;54.02
62592;BME280;48659;41.622;2.276;2023-05-20T03:40:59;99463.16;;;15.83;55.17
62592;BME280;48659;41.622;2.276;2023-05-20T03:43:27;99462.99;;;16.17;54.73
62592;BME280;48659;41.622;2.276;2023-05-20T03:45:55;99463.79;;;15.55;56.50
62592;BME280;48659;41.622;2.276;2023-05-20T03:48:24;99464.23;;;15.36;57.11
62592;BME280;48659;41.622;2.276;2023-05-20T03:50:52;99463.95;;;15.96;55.80
62592;BME280;48659;41.622;2.276;2023-05-20T03:53:19;99462.45;;;15.96;55.93
62592;BME280;48659;41.622;2.276;2023-05-20T03:55:47;99463.24;;;15.89;55.98
62592;BME280;48659;41.622;2.276;2023-05-20T03:58:14;99462.76;;;15.64;55.82
62592;BME280;48659;41.622;2.276;2023-05-20T04:00:43;99468.28;;;15.66;55.21
62592;BME280;48659;41.622;2.276;2023-05-20T04:03:11;99472.13;;;16.40;54.98
62592;BME280;48659;41.622;2.276;2023-05-20T04:05:38;99469.00;;;15.71;56.16
62592;BME280;48659;41.622;2.276;2023-05-20T04:08:06;99474.09;;;16.04;54.65
62592;BME280;48659;41.622;2.276;2023-05-20T04:10:34;99473.23;;;15.47;55.65
62592;BME280;48659;41.622;2.276;2023-05-20T04:13:02;99475.97;;;15.69;55.20
62592;BME280;48659;41.622;2.276;2023-05-20T04:15:30;99473.23;;;15.85;56.49
62592;BME280;48659;41.622;2.276;2023-05-20T04:17:57;99475.68;;;16.09;56.18
62592;BME280;48659;41.622;2.276;2023-05-20T04:20:25;99477.48;;;15.83;55.55
62592;BME280;48659;41.622;2.276;2023-05-20T04:22:55;99475.93;;;15.36;56.60
62592;BME280;48659;41.622;2.276;2023-05-20T04:25:22;99473.13;;;15.40;57.57
62592;BME280;48659;41.622;2.276;2023-05-20T04:27:50;99470.32;;;15.02;57.88
62592;BME280;48659;41.622;2.276;2023-05-20T04:30:18;99472.85;;;15.46;56.30
62592;BME280;48659;41.622;2.276;2023-05-20T04:32:45;99473.65;;;15.90;54.99
62592;BME280;48659;41.622;2.276;2023-05-20T04:35:12;99476.72;;;15.76;55.38
62592;BME280;48659;41.622;2.276;2023-05-20T04:37:40;99475.60;;;15.67;55.46
62592;BME280;48659;41.622;2.276;2023-05-20T04:40:09;99476.66;;;15.48;55.69
62592;BME280;48659;41.622;2.276;2023-05-20T04:42:36;99477.02;;;15.71;56.02
62592;BME280;48659;41.622;2.276;2023-05-20T04:45:11;99477.48;;;14.99;56.39
62592;BME280;48659;41.622;2.276;2023-05-20T04:47:39;99478.70;;;15.25;56.71
62592;BME280;48659;41.622;2.276;2023-05-20T04:50:09;99477.09;;;15.29;56.43
62592;BME280;48659;41.622;2.276;2023-05-20T04:52:38;99478.00;;;15.63;55.76
62592;BME280;48659;41.622;2.276;2023-05-20T04:55:08;99477.54;;;15.63;55.80
62592;BME280;48659;41.622;2.276;2023-05-20T04:57:36;99477.25;;;16.33;53.88
62592;BME280;48659;41.622;2.276;2023-05-20T05:00:17;99475.33;;;16.02;54.15
62592;BME280;48659;41.622;2.276;2023-05-20T05:02:44;99478.63;;;15.91;53.68
62592;BME280;48659;41.622;2.276;2023-05-20T05:05:12;99481.08;;;15.59;53.54
62592;BME280;48659;41.622;2.276;2023-05-20T05:07:40;99481.74;;;14.00;55.92
62592;BME280;48659;41.622;2.276;2023-05-20T05:10:09;99478.03;;;13.00;58.43
62592;BME280;48659;41.622;2.276;2023-05-20T05:12:37;99481.36;;;13.48;57.85
62592;BME280;48659;41.622;2.276;2023-05-20T05:15:05;99477.96;;;14.49;55.08
62592;BME280;48659;41.622;2.276;2023-05-20T05:17:33;99476.97;;;15.62;53.30
62592;BME280;48659;41.622;2.276;2023-05-20T05:20:01;99481.05;;;16.13;51.55
62592;BME280;48659;41.622;2.276;2023-05-20T05:22:28;99480.78;;;16.44;50.93
62592;BME280;48659;41.622;2.276;2023-05-20T05:25:03;99480.87;;;16.77;48.69
62592;BME280;48659;41.622;2.276;2023-05-20T05:27:31;99481.98;;;16.97;47.73
62592;BME280;48659;41.622;2.276;2023-05-20T05:29:59;99477.16;;;17.24;46.56
62592;BME280;48659;41.622;2.276;2023-05-20T05:32:26;99478.52;;;17.55;46.46
62592;BME280;48659;41.622;2.276;2023-05-20T05:34:54;99479.43;;;16.64;47.20
62592;BME280;48659;41.622;2.276;2023-05-20T05:37:22;99476.62;;;18.29;43.72
62592;BME280;48659;41.622;2.276;2023-05-20T05:39:51;99476.85;;;18.77;42.94
62592;BME280;48659;41.622;2.276;2023-05-20T05:42:18;99475.38;;;17.30;44.31
62592;BME280;48659;41.622;2.276;2023-05-20T05:44:47;99470.86;;;17.84;43.44
62592;BME280;48659;41.622;2.276;2023-05-20T05:47:15;99468.59;;;16.71;45.19
62592;BME280;48659;41.622;2.276;2023-05-20T05:49:43;99472.03;;;16.90;46.14
62592;BME280;48659;41.622;2.276;2023-05-20T05:52:11;99468.35;;;16.95;45.64
62592;BME280;48659;41.622;2.276;2023-05-20T05:54:39;99466.13;;;18.11;41.74
62592;BME280;48659;41.622;2.276;2023-05-20T05:57:07;99471.14;;;15.22;46.76
62592;BME280;48659;41.622;2.276;2023-05-20T05:59:34;99471.86;;;13.71;50.97
62592;BME280;48659;41.622;2.276;2023-05-20T06:02:02;99465.18;;;14.83;50.13
62592;BME280;48659;41.622;2.276;2023-05-20T06:04:30;99462.93;;;14.81;50.14
62592;BME280;48659;41.622;2.276;2023-05-20T06:07:02;99461.24;;;14.68;50.03
62592;BME280;48659;41.622;2.276;2023-05-20T06:09:30;99464.64;;;14.19;52.31
62592;BME280;48659;41.622;2.276;2023-05-20T06:12:03;99467.64;;;14.53;52.40
62592;BME280;48659;41.622;2.276;2023-05-20T06:14:30;99467.54;;;14.25;52.33
62592;BME280;48659;41.622;2.276;2023-05-20T06:16:58;99466.27;;;14.60;51.30
62592;BME280;48659;41.622;2.276;2023-05-20T06:19:25;99470.26;;;15.81;49.18
62592;BME280;48659;41.622;2.276;2023-05-20T06:21:58;99464.28;;;14.55;51.78
62592;BME280;48659;41.622;2.276;2023-05-20T06:24:25;99465.53;;;16.59;47.10
62592;BME280;48659;41.622;2.276;2023-05-20T06:26:54;99463.69;;;15.39;48.84
62592;BME280;48659;41.622;2.276;2023-05-20T06:29:22;99464.29;;;14.59;53.29
62592;BME280;48659;41.622;2.276;2023-05-20T06:31:49;99462.61;;;13.49;53.88
62592;BME280;48659;41.622;2.276;2023-05-20T06:34:17;99461.27;;;13.30;55.42
62592;BME280;48659;41.622;2.276;2023-05-20T06:36:44;99464.56;;;13.33;56.18
62592;BME280;48659;41.622;2.276;2023-05-20T06:39:12;99463.43;;;13.09;56.01
62592;BME280;48659;41.622;2.276;2023-05-20T06:41:40;99461.33;;;13.05;56.42
62592;BME280;48659;41.622;2.276;2023-05-20T06:44:08;99463.78;;;13.10;56.32
62592;BME280;48659;41.622;2.276;2023-05-20T06:46:36;99459.29;;;13.52;55.58
62592;BME280;48659;41.622;2.276;2023-05-20T06:49:03;99453.56;;;13.69;54.87
62592;BME280;48659;41.622;2.276;2023-05-20T06:51:30;99452.54;;;12.71;56.36
62592;BME280;48659;41.622;2.276;2023-05-20T06:53:58;99457.00;;;12.75;56.67
62592;BME280;48659;41.622;2.276;2023-05-20T06:56:26;99461.03;;;12.61;55.41
62592;BME280;48659;41.622;2.276;2023-05-20T06:59:02;99457.44;;;13.29;54.68
62592;BME280;48659;41.622;2.276;2023-05-20T07:01:29;99456.50;;;13.70;54.47
62592;BME280;48659;41.622;2.276;2023-05-20T07:04:01;99449.46;;;13.12;54.97
62592;BME280;48659;41.622;2.276;2023-05-20T07:06:29;99452.85;;;13.47;53.49
62592;BME280;48659;41.622;2.276;2023-05-20T07:09:01;99458.33;;;13.53;52.71
62592;BME280;48659;41.622;2.276;2023-05-20T07:11:29;99462.61;;;13.96;53.05
62592;BME280;48659;41.622;2.276;2023-05-20T07:13:56;99457.76;;;13.65;53.32
62592;BME280;48659;41.622;2.276;2023-05-20T07:16:24;99460.05;;;14.28;51.90
62592;BME280;48659;41.622;2.276;2023-05-20T07:18:51;99450.93;;;14.28;51.79
62592;BME280;48659;41.622;2.276;2023-05-20T07:21:20;99446.79;;;15.15;49.68
62592;BME280;48659;41.622;2.276;2023-05-20T07:23:47;99447.96;;;13.74;52.57
62592;BME280;48659;41.622;2.276;2023-05-20T07:26:16;99446.21;;;14.33;50.86
62592;BME280;48659;41.622;2.276;2023-05-20T07:28:43;99448.81;;;13.92;52.90
62592;BME280;48659;41.622;2.276;2023-05-20T07:31:11;99448.98;;;14.04;50.63
62592;BME280;48659;41.622;2.276;2023-05-20T07:33:39;99453.14;;;14.44;50.27
62592;BME280;48659;41.622;2.276;2023-05-20T07:36:06;99449.83;;;14.97;49.54
62592;BME280;48659;41.622;2.276;2023-05-20T07:38:34;99452.69;;;14.68;50.76
62592;BME280;48659;41.622;2.276;2023-05-20T07:41:01;99453.60;;;14.20;51.26
62592;BME280;48659;41.622;2.276;2023-05-20T07:43:29;99459.82;;;14.05;50.43
62592;BME280;48659;41.622;2.276;2023-05-20T07:45:56;99461.24;;;13.65;51.28
62592;BME280;48659;41.622;2.276;2023-05-20T07:48:24;99451.22;;;14.00;51.49
62592;BME280;48659;41.622;2.276;2023-05-20T07:50:51;99449.21;;;14.64;48.55
62592;BME280;48659;41.622;2.276;2023-05-20T07:53:19;99443.73;;;14.67;48.50
62592;BME280;48659;41.622;2.276;2023-05-20T07:55:46;99446.18;;;14.17;48.96
62592;BME280;48659;41.622;2.276;2023-05-20T07:58:14;99443.02;;;15.91;46.21
62592;BME280;48659;41.622;2.276;2023-05-20T08:00:43;99445.15;;;15.48;45.40
62592;BME280;48659;41.622;2.276;2023-05-20T08:03:11;99433.30;;;16.52;43.56
62592;BME280;48659;41.622;2.276;2023-05-20T08:05:40;99427.52;;;15.70;45.05
62592;BME280;48659;41.622;2.276;2023-05-20T08:08:08;99429.63;;;14.60;45.76
62592;BME280;48659;41.622;2.276;2023-05-20T08:10:36;99421.91;;;16.24;45.78
62592;BME280;48659;41.622;2.276;2023-05-20T08:13:03;99421.82;;;16.14;43.51
62592;BME280;48659;41.622;2.276;2023-05-20T08:15:30;99427.00;;;14.66;47.18
62592;BME280;48659;41.622;2.276;2023-05-20T08:18:02;99424.47;;;15.11;46.76
62592;BME280;48659;41.622;2.276;2023-05-20T08:20:30;99428.06;;;14.96;47.56
62592;BME280;48659;41.622;2.276;2023-05-20T08:22:57;99428.67;;;15.11;47.62
62592;BME280;48659;41.622;2.276;2023-05-20T08:25:25;99424.38;;;15.51;45.93
62592;BME280;48659;41.622;2.276;2023-05-20T08:27:53;99428.23;;;15.81;44.95
62592;BME280;48659;41.622;2.276;2023-05-20T08:30:20;99416.06;;;15.17;47.06
62592;BME280;48659;41.622;2.276;2023-05-20T08:32:47;99415.61;;;15.47;45.94
62592;BME280;48659;41.622;2.276;2023-05-20T08:35:16;99412.77;;;15.42;47.76
62592;BME280;48659;41.622;2.276;2023-05-20T08:37:43;99403.82;;;16.73;43.40
62592;BME280;48659;41.622;2.276;2023-05-20T08:40:12;99410.96;;;15.43;46.34
62592;BME280;48659;41.622;2.276;2023-05-20T08:42:41;99406.69;;;16.37;43.66
62592;BME280;48659;41.622;2.276;2023-05-20T08:45:11;99414.27;;;15.90;44.07
62592;BME280;48659;41.622;2.276;2023-05-20T08:47:40;99408.18;;;16.25;44.06
62592;BME280;48659;41.622;2.276;2023-05-20T08:50:10;99402.07;;;16.85;42.10
62592;BME280;48659;41.622;2.276;2023-05-20T08:52:42;99399.85;;;17.18;41.76
62592;BME280;48659;41.622;2.276;2023-05-20T08:55:14;99398.45;;;17.48;40.58
62592;BME280;48659;41.622;2.276;2023-05-20T08:57:41;99394.38;;;16.60;42.16
62592;BME280;48659;41.622;2.276;2023-05-20T09:00:10;99396.13;;;15.90;44.40
62592;BME280;48659;41.622;2.276;2023-05-20T09:02:37;99392.70;;;16.46;44.45
62592;BME280;48659;41.622;2.276;2023-05-20T09:05:06;99396.73;;;16.38;44.58
62592;BME280;48659;41.622;2.276;2023-05-20T09:07:36;99396.25;;;15.96;45.17
62592;BME280;48659;41.622;2.276;2023-05-20T09:10:05;99391.91;;;17.17;43.95
62592;BME280;48659;41.622;2.276;2023-05-20T09:12:32;99386.40;;;17.35;42.09
62592;BME280;48659;41.622;2.276;2023-05-20T09:14:59;99384.69;;;18.28;39.96
62592;BME280;48659;41.622;2.276;2023-05-20T09:17:26;99380.78;;;20.48;38.79
62592;BME280;48659;41.622;2.276;2023-05-20T09:19:54;99384.37;;;17.68;40.56
62592;BME280;48659;41.622;2.276;2023-05-20T09:22:22;99386.15;;;20.18;39.93
62592;BME280;48659;41.622;2.276;2023-05-20T09:24:54;99379.87;;;21.18;37.28
62592;BME280;48659;41.622;2.276;2023-05-20T09:27:22;99378.00;;;21.00;36.28
62592;BME280;48659;41.622;2.276;2023-05-20T09:29:50;99376.26;;;21.74;35.00
62592;BME280;48659;41.622;2.276;2023-05-20T09:32:20;99376.76;;;21.67;34.83
62592;BME280;48659;41.622;2.276;2023-05-20T09:34:48;99374.86;;;21.23;35.59
62592;BME280;48659;41.622;2.276;2023-05-20T09:37:17;99375.95;;;22.00;34.41
62592;BME280;48659;41.622;2.276;2023-05-20T09:39:54;99372.98;;;22.16;32.56
62592;BME280;48659;41.622;2.276;2023-05-20T09:42:25;99379.06;;;20.84;34.09
62592;BME280;48659;41.622;2.276;2023-05-20T09:45:05;99379.00;;;22.58;31.71
62592;BME280;48659;41.622;2.276;2023-05-20T09:47:33;99380.17;;;21.10;33.82
62592;BME280;48659;41.622;2.276;2023-05-20T09:50:06;99377.80;;;22.10;32.06
62592;BME280;48659;41.622;2.276;2023-05-20T09:52:36;99376.51;;;21.86;31.39
62592;BME280;48659;41.622;2.276;2023-05-20T09:55:05;99375.11;;;21.82;31.87
62592;BME280;48659;41.622;2.276;2023-05-20T09:57:33;99367.19;;;22.23;31.00
62592;BME280;48659;41.622;2.276;2023-05-20T10:00:01;99373.37;;;20.42;33.19
62592;BME280;48659;41.622;2.276;2023-05-20T10:02:29;99371.53;;;22.42;30.76
62592;BME280;48659;41.622;2.276;2023-05-20T10:05:04;99365.03;;;22.74;30.07
62592;BME280;48659;41.622;2.276;2023-05-20T10:08:47;99370.77;;;22.45;30.95
62592;BME280;48659;41.622;2.276;2023-05-20T10:11:24;99374.98;;;21.10;31.91
62592;BME280;48659;41.622;2.276;2023-05-20T10:14:12;99376.29;;;21.76;30.97
62592;BME280;48659;41.622;2.276;2023-05-20T10:16:47;99373.27;;;22.58;28.76
62592;BME280;48659;41.622;2.276;2023-05-20T10:19:26;99370.30;;;22.62;28.92
62592;BME280;48659;41.622;2.276;2023-05-20T10:22:02;99368.07;;;23.00;28.43
62592;BME280;48659;41.622;2.276;2023-05-20T10:24:32;99366.85;;;23.28;27.68
62592;BME280;48659;41.622;2.276;2023-05-20T10:27:04;99374.06;;;21.63;29.77
62592;BME280;48659;41.622;2.276;2023-05-20T10:29:42;99371.65;;;21.26;28.80
62592;BME280;48659;41.622;2.276;2023-05-20T10:32:10;99369.47;;;22.18;28.34
62592;BME280;48659;41.622;2.276;2023-05-20T10:34:46;99371.36;;;22.56;28.66
62592;BME280;48659;41.622;2.276;2023-05-20T10:37:23;99367.63;;;22.54;27.95
62592;BME280;48659;41.622;2.276;2023-05-20T10:39:51;99366.21;;;22.71;27.43
62592;BME280;48659;41.622;2.276;2023-05-20T10:42:27;99368.48;;;22.47;28.57
62592;BME280;48659;41.622;2.276;2023-05-20T10:45:03;99371.50;;;22.94;27.37
62592;BME280;48659;41.622;2.276;2023-05-20T10:47:31;99370.99;;;23.83;26.57
62592;BME280;48659;41.622;2.276;2023-05-20T10:50:05;99367.23;;;22.91;27.48
62592;BME280;48659;41.622;2.276;2023-05-20T10:52:35;99364.31;;;23.23;27.86
62592;BME280;48659;41.622;2.276;2023-05-20T10:55:03;99367.35;;;21.02;28.90
62592;BME280;48659;41.622;2.276;2023-05-20T10:57:30;99361.74;;;20.50;30.03
62592;BME280;48659;41.622;2.276;2023-05-20T11:00:04;99359.57;;;21.95;28.35
62592;BME280;48659;41.622;2.276;2023-05-20T11:02:33;99357.08;;;21.18;29.70
62592;BME280;48659;41.622;2.276;2023-05-20T11:05:01;99351.21;;;20.20;30.63
62592;BME280;48659;41.622;2.276;2023-05-20T11:07:30;99349.38;;;20.40;30.40
62592;BME280;48659;41.622;2.276;2023-05-20T11:10:02;99346.87;;;21.09;29.28
62592;BME280;48659;41.622;2.276;2023-05-20T11:12:34;99345.96;;;21.84;32.41
62592;BME280;48659;41.622;2.276;2023-05-20T11:15:02;99345.26;;;21.65;29.13
62592;BME280;48659;41.622;2.276;2023-05-20T11:17:29;99343.51;;;20.91;29.41
62592;BME280;48659;41.622;2.276;2023-05-20T11:20:05;99342.88;;;23.01;27.71
62592;BME280;48659;41.622;2.276;2023-05-20T11:22:32;99339.18;;;23.77;26.32
62592;BME280;48659;41.622;2.276;2023-05-20T11:25:04;99335.57;;;22.99;27.23
62592;BME280;48659;41.622;2.276;2023-05-20T11:27:32;99336.02;;;23.31;25.83
62592;BME280;48659;41.622;2.276;2023-05-20T11:29:59;99335.51;;;23.97;26.01
62592;BME280;48659;41.622;2.276;2023-05-20T11:32:28;99332.08;;;24.00;25.49
62592;BME280;48659;41.622;2.276;2023-05-20T11:35:03;99330.48;;;22.82;26.28
62592;BME280;48659;41.622;2.276;2023-05-20T11:37:31;99331.21;;;23.97;26.09
62592;BME280;48659;41.622;2.276;2023-05-20T11:40:06;99332.30;;;21.52;27.52
62592;BME280;48659;41.622;2.276;2023-05-20T11:42:35;99331.54;;;21.72;27.57
62592;BME280;48659;41.622;2.276;2023-05-20T11:45:03;99332.61;;;23.45;25.97
62592;BME280;48659;41.622;2.276;2023-05-20T11:47:31;99330.54;;;23.00;26.04
62592;BME280;48659;41.622;2.276;2023-05-20T11:50:06;99334.48;;;20.59;31.92
62592;BME280;48659;41.622;2.276;2023-05-20T11:52:35;99339.22;;;19.29;34.93
62592;BME280;48659;41.622;2.276;2023-05-20T11:55:03;99333.48;;;19.68;33.94
62592;BME280;48659;41.622;2.276;2023-05-20T11:57:32;99329.74;;;20.29;33.72
62592;BME280;48659;41.622;2.276;2023-05-20T12:00:12;99336.87;;;19.31;37.01
62592;BME280;48659;41.622;2.276;2023-05-20T12:02:39;99339.66;;;19.20;39.01
62592;BME280;48659;41.622;2.276;2023-05-20T12:05:07;99335.29;;;18.65;41.95
62592;BME280;48659;41.622;2.276;2023-05-20T12:07:35;99338.74;;;19.38;40.70
62592;BME280;48659;41.622;2.276;2023-05-20T12:10:06;99333.25;;;18.29;42.55
62592;BME280;48659;41.622;2.276;2023-05-20T12:12:33;99335.92;;;18.11;45.60
62592;BME280;48659;41.622;2.276;2023-05-20T12:15:00;99331.96;;;18.18;44.83
62592;BME280;48659;41.622;2.276;2023-05-20T12:17:28;99336.49;;;18.01;45.78
62592;BME280;48659;41.622;2.276;2023-05-20T12:19:56;99333.76;;;18.13;45.60
62592;BME280;48659;41.622;2.276;2023-05-20T12:22:23;99328.39;;;17.99;44.57
62592;BME280;48659;41.622;2.276;2023-05-20T12:24:51;99330.39;;;18.43;45.07
62592;BME280;48659;41.622;2.276;2023-05-20T12:27:19;99333.46;;;18.55;43.61
62592;BME280;48659;41.622;2.276;2023-05-20T12:29:47;99333.10;;;18.56;43.58
62592;BME280;48659;41.622;2.276;2023-05-20T12:32:15;99334.45;;;19.20;42.00
62592;BME280;48659;41.622;2.276;2023-05-20T12:34:43;99333.29;;;18.64;42.82
62592;BME280;48659;41.622;2.276;2023-05-20T12:37:11;99329.02;;;18.70;42.61
62592;BME280;48659;41.622;2.276;2023-05-20T12:39:38;99326.83;;;18.64;42.74
62592;BME280;48659;41.622;2.276;2023-05-20T12:42:06;99327.58;;;19.15;42.76
62592;BME280;48659;41.622;2.276;2023-05-20T12:44:34;99330.21;;;18.08;44.31
62592;BME280;48659;41.622;2.276;2023-05-20T12:47:02;99328.42;;;18.33;43.68
62592;BME280;48659;41.622;2.276;2023-05-20T12:49:29;99332.15;;;17.90;45.60
62592;BME280;48659;41.622;2.276;2023-05-20T12:52:03;99328.38;;;18.55;44.72
62592;BME280;48659;41.622;2.276;2023-05-20T12:54:31;99334.66;;;18.10;45.26
62592;BME280;48659;41.622;2.276;2023-05-20T12:57:02;99335.88;;;18.14;44.54
62592;BME280;48659;41.622;2.276;2023-05-20T12:59:30;99340.73;;;18.00;45.54
62592;BME280;48659;41.622;2.276;2023-05-20T13:02:02;99338.92;;;17.97;44.85
62592;BME280;48659;41.622;2.276;2023-05-20T13:04:30;99337.64;;;17.86;45.52
62592;BME280;48659;41.622;2.276;2023-05-20T13:06:57;99337.72;;;18.19;44.48
62592;BME280;48659;41.622;2.276;2023-05-20T13:09:25;99340.33;;;17.75;44.28
62592;BME280;48659;41.622;2.276;2023-05-20T13:11:53;99340.59;;;19.21;41.71
62592;BME280;48659;41.622;2.276;2023-05-20T13:14:20;99339.17;;;19.47;41.38